createdAt,value
2023-04-10T00:00:31.975Z,20.33
2023-04-10T00:03:35.488Z,19.00
2023-04-10T00:06:41.615Z,21.85
2023-04-10T00:09:45.895Z,22.98
2023-04-10T00:12:50.996Z,15.95
2023-04-10T00:15:55.309Z,20.83
2023-04-10T00:18:58.695Z,20.02
2023-04-10T00:22:03.582Z,21.75
2023-04-10T00:25:07.421Z,24.15
2023-04-10T00:28:10.996Z,18.70
2023-04-10T00:31:14.420Z,19.63
2023-04-10T00:34:17.927Z,18.65
2023-04-10T00:37:22.631Z,19.17
2023-04-10T00:40:26.446Z,18.63
2023-04-10T00:43:29.916Z,17.42
2023-04-10T00:46:35.367Z,17.35
2023-04-10T00:49:39.452Z,25.50
2023-04-10T00:52:44.211Z,18.33
2023-04-10T00:55:47.955Z,20.42
2023-04-10T00:58:51.370Z,15.93
2023-04-10T01:01:54.946Z,17.35
2023-04-10T01:04:58.698Z,20.30
2023-04-10T01:08:07.923Z,17.70
2023-04-10T01:11:14.944Z,21.45
2023-04-10T01:14:21.392Z,23.27
2023-04-10T01:17:30.451Z,16.83
2023-04-10T01:20:35.994Z,19.80
2023-04-10T01:23:48.091Z,20.45
2023-04-10T01:26:58.036Z,21.67
2023-04-10T01:30:04.562Z,15.52
2023-04-10T01:33:11.528Z,20.40
2023-04-10T01:36:19.019Z,21.15
2023-04-10T01:39:23.926Z,18.48
2023-04-10T01:42:28.518Z,17.77
2023-04-10T01:45:33.635Z,18.98
2023-04-10T01:48:37.198Z,18.85
2023-04-10T01:51:40.762Z,22.17
2023-04-10T01:54:48.447Z,22.40
2023-04-10T01:57:57.748Z,15.65
2023-04-10T02:01:03.128Z,20.13
2023-04-10T02:04:06.776Z,22.90
2023-04-10T02:07:12.642Z,21.58
2023-04-10T02:10:19.165Z,22.70
2023-04-10T02:13:23.534Z,21.00
2023-04-10T02:16:30.935Z,15.10
2023-04-10T02:19:34.748Z,22.42
2023-04-10T02:22:38.769Z,17.38
2023-04-10T02:25:42.131Z,15.85
2023-04-10T02:28:46.386Z,20.20
2023-04-10T02:31:51.812Z,19.73
2023-04-10T02:34:56.320Z,18.88
2023-04-10T02:37:59.736Z,21.50
2023-04-10T02:41:03.464Z,18.65
2023-04-10T02:44:07.378Z,21.30
2023-04-10T02:47:12.213Z,18.90
2023-04-10T02:50:21.495Z,24.20
2023-04-10T02:53:26.012Z,21.58
2023-04-10T02:56:35.620Z,20.60
2023-04-10T02:59:39.020Z,22.77
2023-04-10T03:02:44.744Z,20.52
2023-04-10T03:05:53.312Z,20.92
2023-04-10T03:09:02.841Z,17.98
2023-04-10T03:12:06.287Z,21.42
2023-04-10T03:15:10.358Z,23.30
2023-04-10T03:18:15.368Z,21.90
2023-04-10T03:21:21.497Z,19.98
2023-04-10T03:24:27.037Z,21.45
2023-04-10T03:27:32.149Z,17.17
2023-04-10T03:30:37.002Z,25.85
2023-04-10T03:33:41.908Z,19.60
2023-04-10T03:36:46.454Z,21.40
2023-04-10T03:39:51.447Z,22.35
2023-04-10T03:42:54.879Z,23.13
2023-04-10T03:45:58.571Z,20.50
2023-04-10T03:49:03.457Z,21.48
2023-04-10T03:52:09.291Z,18.17
2023-04-10T03:55:14.421Z,27.25
2023-04-10T03:58:18.572Z,21.80
2023-04-10T04:01:22.776Z,22.42
2023-04-10T04:04:40.041Z,24.20
2023-04-10T04:08:06.614Z,23.67
2023-04-10T04:11:15.279Z,18.55
2023-04-10T04:14:33.643Z,19.35
2023-04-10T04:17:55.838Z,19.80
2023-04-10T04:21:19.695Z,22.55
2023-04-10T04:24:43.896Z,17.98
2023-04-10T04:27:53.677Z,18.15
2023-04-10T04:31:10.776Z,20.50
2023-04-10T04:34:26.013Z,20.92
2023-04-10T04:37:57.977Z,21.55
2023-04-10T04:41:01.287Z,20.52
2023-04-10T04:44:17.963Z,20.70
2023-04-10T04:47:44.279Z,16.85
2023-04-10T04:50:56.087Z,25.80
2023-04-10T04:54:23.263Z,20.55
2023-04-10T04:57:39.016Z,22.45
2023-04-10T05:00:58.137Z,20.55
2023-04-10T05:04:27.712Z,15.90
2023-04-10T05:07:36.700Z,16.00
2023-04-10T05:10:52.748Z,21.98
2023-04-10T05:14:14.647Z,16.80
2023-04-10T05:17:38.271Z,21.33
2023-04-10T05:20:51.509Z,18.98
2023-04-10T05:24:08.427Z,22.25
2023-04-10T05:27:42.402Z,22.63
2023-04-10T05:31:12.028Z,26.25
2023-04-10T05:34:15.605Z,21.63
2023-04-10T05:37:36.385Z,22.02
2023-04-10T05:41:03.085Z,24.23
2023-04-10T05:44:36.801Z,18.75
2023-04-10T05:47:55.670Z,17.55
2023-04-10T05:51:13.775Z,20.70
2023-04-10T05:54:36.252Z,24.27
2023-04-10T05:57:56.701Z,21.05
2023-04-10T06:01:24.760Z,19.80
2023-04-10T06:04:41.739Z,19.33
2023-04-10T06:07:45.470Z,22.23
2023-04-10T06:10:48.817Z,20.73
2023-04-10T06:13:52.431Z,18.83
2023-04-10T06:17:00.856Z,23.27
2023-04-10T06:20:04.696Z,20.48
2023-04-10T06:23:08.205Z,24.25
2023-04-10T06:26:13.674Z,23.52
2023-04-10T06:29:23.473Z,23.35
2023-04-10T06:32:40.347Z,18.27
2023-04-10T06:35:43.978Z,24.27
2023-04-10T06:38:47.916Z,22.75
2023-04-10T06:41:53.080Z,24.50
2023-04-10T06:45:15.546Z,21.25
2023-04-10T06:48:20.846Z,21.17
2023-04-10T06:51:26.280Z,20.98
2023-04-10T06:54:34.611Z,21.10
2023-04-10T06:57:38.056Z,21.23
2023-04-10T07:00:42.234Z,20.52
2023-04-10T07:03:47.364Z,22.40
2023-04-10T07:06:54.238Z,19.10
2023-04-10T07:09:58.836Z,23.63
2023-04-10T07:13:05.807Z,18.73
2023-04-10T07:16:09.969Z,28.05
2023-04-10T07:19:15.338Z,23.08
2023-04-10T07:22:21.337Z,22.13
2023-04-10T07:25:28.681Z,18.65
2023-04-10T07:28:33.285Z,17.67
2023-04-10T07:31:44.882Z,18.60
2023-04-10T07:34:50.993Z,23.05
2023-04-10T07:37:57.129Z,24.67
2023-04-10T07:41:04.739Z,22.27
2023-04-10T07:44:08.273Z,19.15
2023-04-10T07:47:12.000Z,17.15
2023-04-10T07:50:18.821Z,25.42
2023-04-10T07:53:29.479Z,20.30
2023-04-10T07:56:37.924Z,21.83
2023-04-10T07:59:49.379Z,20.55
2023-04-10T08:02:56.210Z,18.92
2023-04-10T08:06:01.677Z,18.95
2023-04-10T08:09:06.457Z,16.67
2023-04-10T08:12:12.548Z,16.80
2023-04-10T08:15:16.560Z,20.98
2023-04-10T08:18:20.473Z,17.67
2023-04-10T08:21:27.283Z,19.10
2023-04-10T08:24:30.877Z,20.08
2023-04-10T08:27:34.657Z,19.05
2023-04-10T08:30:58.591Z,18.20
2023-04-10T08:34:20.957Z,17.98
2023-04-10T08:37:33.287Z,17.20
2023-04-10T08:40:45.277Z,15.20
2023-04-10T08:43:50.944Z,23.42
2023-04-10T08:46:54.983Z,16.17
2023-04-10T08:50:15.334Z,16.08
2023-04-10T08:53:32.619Z,14.85
2023-04-10T08:56:42.367Z,17.30
2023-04-10T08:59:46.219Z,19.40
2023-04-10T09:02:58.173Z,17.88
2023-04-10T09:06:26.172Z,16.08
2023-04-10T09:09:42.529Z,14.75
2023-04-10T09:12:58.418Z,14.75
2023-04-10T09:16:08.845Z,16.88
2023-04-10T09:19:17.282Z,15.00
2023-04-10T09:22:31.114Z,13.52
2023-04-10T09:25:54.272Z,14.35
2023-04-10T09:29:19.904Z,19.38
2023-04-10T09:32:53.243Z,16.25
2023-04-10T09:36:43.247Z,15.50
2023-04-10T09:40:12.305Z,14.70
2023-04-10T09:43:28.851Z,13.57
2023-04-10T09:46:48.739Z,13.63
2023-04-10T09:50:01.467Z,13.30
2023-04-10T09:53:10.756Z,12.45
2023-04-10T09:57:15.377Z,14.88
2023-04-10T10:00:56.065Z,14.55
2023-04-10T10:04:35.653Z,14.80
2023-04-10T10:07:40.560Z,11.75
2023-04-10T10:11:05.192Z,12.43
2023-04-10T10:14:32.637Z,10.40
2023-04-10T10:18:07.139Z,9.02
2023-04-10T10:21:16.564Z,7.07
2023-04-10T10:24:33.863Z,9.02
2023-04-10T10:27:41.077Z,9.73
2023-04-10T10:31:07.384Z,7.22
2023-04-10T10:34:31.089Z,7.93
2023-04-10T10:38:00.349Z,6.18
2023-04-10T10:41:19.481Z,9.43
2023-04-10T10:44:34.327Z,8.60
2023-04-10T10:48:12.834Z,5.38
2023-04-10T10:51:27.521Z,5.68
2023-04-10T10:54:42.197Z,9.38
2023-04-10T10:57:55.891Z,5.65
2023-04-10T11:01:10.855Z,7.03
2023-04-10T11:04:36.332Z,5.82
2023-04-10T11:08:16.069Z,6.22
2023-04-10T11:11:21.686Z,5.68
2023-04-10T11:14:35.683Z,7.13
2023-04-10T11:17:51.957Z,7.20
2023-04-10T11:21:10.688Z,7.88
2023-04-10T11:24:14.730Z,4.80
2023-04-10T11:27:33.496Z,4.93
2023-04-10T11:30:38.772Z,6.28
2023-04-10T11:33:49.299Z,6.55
2023-04-10T11:36:53.278Z,5.50
2023-04-10T11:40:05.258Z,5.82
2023-04-10T11:43:30.351Z,7.88
2023-04-10T11:46:39.149Z,4.30
2023-04-10T11:49:43.165Z,5.32
2023-04-10T11:52:46.853Z,4.38
2023-04-10T11:55:50.428Z,6.65
2023-04-10T11:58:54.948Z,5.47
2023-04-10T12:02:08.161Z,6.18
2023-04-10T12:05:11.845Z,6.00
2023-04-10T12:08:19.028Z,2.75
2023-04-10T12:11:31.985Z,4.70
2023-04-10T12:14:39.610Z,4.97
2023-04-10T12:17:44.946Z,6.55
2023-04-10T12:20:51.862Z,4.47
2023-04-10T12:23:56.257Z,3.45
2023-04-10T12:27:00.446Z,4.03
2023-04-10T12:30:09.462Z,5.20
2023-04-10T12:33:18.806Z,3.85
2023-04-10T12:36:35.899Z,3.90
2023-04-10T12:39:40.602Z,6.00
2023-04-10T12:43:08.999Z,3.63
2023-04-10T12:46:25.336Z,3.00
2023-04-10T12:49:30.879Z,3.40
2023-04-10T12:52:41.328Z,4.20
2023-04-10T12:56:05.538Z,4.13
2023-04-10T12:59:15.010Z,9.80
2023-04-10T13:02:23.111Z,5.85
2023-04-10T13:05:28.175Z,5.93
2023-04-10T13:08:32.645Z,4.07
2023-04-10T13:11:39.972Z,3.42
2023-04-10T13:14:45.631Z,5.15
2023-04-10T13:17:49.375Z,4.82
2023-04-10T13:20:54.841Z,5.53
2023-04-10T13:23:58.808Z,5.68
2023-04-10T13:27:02.792Z,4.53
2023-04-10T13:30:06.907Z,6.78
2023-04-10T13:33:10.721Z,6.00
2023-04-10T13:36:15.898Z,4.47
2023-04-10T13:39:19.964Z,8.60
2023-04-10T13:42:23.996Z,5.43
2023-04-10T13:45:27.856Z,5.57
2023-04-10T13:48:40.098Z,7.35
2023-04-10T13:51:47.983Z,5.55
2023-04-10T13:54:51.691Z,5.45
2023-04-10T13:57:56.164Z,5.25
2023-04-10T14:00:59.736Z,10.50
2023-04-10T14:04:04.726Z,6.43
2023-04-10T14:07:11.686Z,8.20
2023-04-10T14:10:19.822Z,6.63
2023-04-10T14:13:23.830Z,6.25
2023-04-10T14:16:27.369Z,9.45
2023-04-10T14:19:31.590Z,6.85
2023-04-10T14:22:36.758Z,7.30
2023-04-10T14:25:40.691Z,8.40
2023-04-10T14:28:44.333Z,7.10
2023-04-10T14:31:57.565Z,5.70
2023-04-10T14:35:04.594Z,8.68
2023-04-10T14:38:13.712Z,9.43
2023-04-10T14:41:17.388Z,5.85
2023-04-10T14:44:21.025Z,6.13
2023-04-10T14:47:27.502Z,6.78
2023-04-10T14:50:33.235Z,6.22
2023-04-10T14:53:40.464Z,8.98
2023-04-10T14:56:46.048Z,6.10
2023-04-10T14:59:49.280Z,6.40
2023-04-10T15:02:52.880Z,6.47
2023-04-10T15:06:00.984Z,5.80
2023-04-10T15:09:05.913Z,7.78
2023-04-10T15:12:12.755Z,8.50
2023-04-10T15:15:18.102Z,6.15
2023-04-10T15:18:21.663Z,6.03
2023-04-10T15:21:25.291Z,5.20
2023-04-10T15:24:32.512Z,4.38
2023-04-10T15:27:40.759Z,3.53
2023-04-10T15:30:49.590Z,6.25
2023-04-10T15:33:56.780Z,4.85
2023-04-10T15:37:00.745Z,8.27
2023-04-10T15:40:07.575Z,9.73
2023-04-10T15:43:11.240Z,12.50
2023-04-10T15:46:15.968Z,6.40
2023-04-10T15:49:34.027Z,5.53
2023-04-10T15:52:41.217Z,4.80
2023-04-10T15:55:46.498Z,11.77
2023-04-10T15:58:50.183Z,7.25
2023-04-10T16:01:53.550Z,6.55
2023-04-10T16:04:58.886Z,10.10
2023-04-10T16:08:04.534Z,8.45
2023-04-10T16:11:10.384Z,7.95
2023-04-10T16:14:20.263Z,7.93
2023-04-10T16:17:24.008Z,8.45
2023-04-10T16:20:27.877Z,13.98
2023-04-10T16:23:31.340Z,6.30
2023-04-10T16:26:37.057Z,8.88
2023-04-10T16:29:41.543Z,10.07
2023-04-10T16:32:45.712Z,5.45
2023-04-10T16:35:54.207Z,6.95
2023-04-10T16:38:58.110Z,5.85
2023-04-10T16:42:03.614Z,8.10
2023-04-10T16:45:08.584Z,10.82
2023-04-10T16:48:12.175Z,5.00
2023-04-10T16:51:17.774Z,6.88
2023-04-10T16:54:21.569Z,7.00
2023-04-10T16:57:28.959Z,5.70
2023-04-10T17:00:32.574Z,7.07
2023-04-10T17:03:36.114Z,4.78
2023-04-10T17:06:40.046Z,8.13
2023-04-10T17:09:43.819Z,7.65
2023-04-10T17:12:51.029Z,7.18
2023-04-10T17:15:57.241Z,4.72
2023-04-10T17:19:02.342Z,6.22
2023-04-10T17:22:06.374Z,8.00
2023-04-10T17:25:10.522Z,6.00
2023-04-10T17:28:15.558Z,7.10
2023-04-10T17:31:22.217Z,5.53
2023-04-10T17:34:26.195Z,19.70
2023-04-10T17:37:30.065Z,8.18
2023-04-10T17:40:33.478Z,5.22
2023-04-10T17:43:40.285Z,9.00
2023-04-10T17:46:45.752Z,7.72
2023-04-10T17:49:49.383Z,12.05
2023-04-10T17:52:53.300Z,7.22
2023-04-10T17:55:56.718Z,6.70
2023-04-10T17:59:01.578Z,6.22
2023-04-10T18:02:08.611Z,6.65
2023-04-10T18:05:12.844Z,8.05
2023-04-10T18:08:17.359Z,8.13
2023-04-10T18:11:22.493Z,9.85
2023-04-10T18:14:27.489Z,6.47
2023-04-10T18:17:30.971Z,18.60
2023-04-10T18:20:35.385Z,6.03
2023-04-10T18:23:40.086Z,8.07
2023-04-10T18:26:45.294Z,7.72
2023-04-10T18:29:50.500Z,7.55
2023-04-10T18:32:55.114Z,6.95
2023-04-10T18:36:05.414Z,8.82
2023-04-10T18:39:11.373Z,6.60
2023-04-10T18:42:14.750Z,10.23
2023-04-10T18:45:21.609Z,9.68
2023-04-10T18:48:26.387Z,8.13
2023-04-10T18:51:31.464Z,10.30
2023-04-10T18:54:35.318Z,6.43
2023-04-10T18:57:38.638Z,8.88
2023-04-10T19:00:44.155Z,6.93
2023-04-10T19:03:50.780Z,6.03
2023-04-10T19:06:56.131Z,8.77
2023-04-10T19:09:59.929Z,7.90
2023-04-10T19:13:03.968Z,8.30
2023-04-10T19:16:14.426Z,7.95
2023-04-10T19:19:18.648Z,5.78
2023-04-10T19:22:22.140Z,8.80
2023-04-10T19:25:27.704Z,6.93
2023-04-10T19:28:34.780Z,8.30
2023-04-10T19:31:39.789Z,9.82
2023-04-10T19:34:45.456Z,8.27
2023-04-10T19:37:54.046Z,8.18
2023-04-10T19:41:00.829Z,7.90
2023-04-10T19:44:06.042Z,6.78
2023-04-10T19:47:11.212Z,7.57
2023-04-10T19:50:14.904Z,8.98
2023-04-10T19:53:18.535Z,6.68
2023-04-10T19:56:22.094Z,8.18
2023-04-10T19:59:26.022Z,6.97
2023-04-10T20:02:31.100Z,9.73
2023-04-10T20:05:35.244Z,6.97
2023-04-10T20:08:39.113Z,13.95
2023-04-10T20:11:43.761Z,6.63
2023-04-10T20:14:47.648Z,6.70
2023-04-10T20:17:52.776Z,7.15
2023-04-10T20:20:57.359Z,7.35
2023-04-10T20:24:01.015Z,8.07
2023-04-10T20:27:06.800Z,7.70
2023-04-10T20:30:12.972Z,7.28
2023-04-10T20:33:18.442Z,7.65
2023-04-10T20:36:26.488Z,7.55
2023-04-10T20:39:33.927Z,6.68
2023-04-10T20:42:37.557Z,7.53
2023-04-10T20:45:45.015Z,8.18
2023-04-10T20:48:49.871Z,7.85
2023-04-10T20:51:53.444Z,7.47
2023-04-10T20:54:59.161Z,8.68
2023-04-10T20:58:02.895Z,6.97
2023-04-10T21:01:10.375Z,9.93
2023-04-10T21:04:15.806Z,6.18
2023-04-10T21:07:20.150Z,7.28
2023-04-10T21:10:24.300Z,5.47
2023-04-10T21:13:29.121Z,11.85
2023-04-10T21:16:34.983Z,10.25
2023-04-10T21:19:40.025Z,6.18
2023-04-10T21:22:43.574Z,6.80
2023-04-10T21:25:52.647Z,9.30
2023-04-10T21:28:59.898Z,6.10
2023-04-10T21:32:03.321Z,5.00
2023-04-10T21:35:11.788Z,5.38
2023-04-10T21:38:15.491Z,6.45
2023-04-10T21:41:22.313Z,7.97
2023-04-10T21:44:25.853Z,4.97
2023-04-10T21:47:31.667Z,6.97
2023-04-10T21:50:38.350Z,7.15
2023-04-10T21:54:05.530Z,6.15
2023-04-10T21:57:09.048Z,6.35
2023-04-10T22:00:13.753Z,5.35
2023-04-10T22:03:19.929Z,5.65
2023-04-10T22:06:28.142Z,4.93
2023-04-10T22:09:32.168Z,5.65
2023-04-10T22:12:35.640Z,4.07
2023-04-10T22:15:45.318Z,5.15
2023-04-10T22:18:49.209Z,4.88
2023-04-10T22:21:55.249Z,4.95
2023-04-10T22:24:58.962Z,5.63
2023-04-10T22:28:03.309Z,4.88
2023-04-10T22:31:07.436Z,4.15
2023-04-10T22:34:11.828Z,6.53
2023-04-10T22:37:17.921Z,5.00
2023-04-10T22:40:22.300Z,3.33
2023-04-10T22:43:25.845Z,3.92
2023-04-10T22:46:30.304Z,4.30
2023-04-10T22:49:33.973Z,4.45
2023-04-10T22:52:41.665Z,6.78
2023-04-10T22:55:45.584Z,4.47
2023-04-10T22:58:49.289Z,6.18
2023-04-10T23:01:52.715Z,5.15
2023-04-10T23:04:57.552Z,4.28
2023-04-10T23:08:02.832Z,4.22
2023-04-10T23:11:07.136Z,4.10
2023-04-10T23:14:10.945Z,3.85
2023-04-10T23:17:14.564Z,3.83
2023-04-10T23:20:18.536Z,4.03
2023-04-10T23:23:23.343Z,5.63
2023-04-10T23:26:26.747Z,3.55
2023-04-10T23:29:31.063Z,3.25
2023-04-10T23:32:39.192Z,6.25
2023-04-10T23:35:53.244Z,3.65
2023-04-10T23:38:58.167Z,2.90
2023-04-10T23:42:02.314Z,2.40
2023-04-10T23:45:06.336Z,3.33
2023-04-10T23:48:10.120Z,3.08
2023-04-10T23:51:15.569Z,2.65
2023-04-10T23:54:20.983Z,5.75
2023-04-10T23:57:25.303Z,3.80
